sensor_id;sensor_type;location;lat;lon;timestamp;P1;durP1;ratioP1;P2;durP2;ratioP2
68273;SDS011;55104;47.356;19.448;2023-07-13T00:02:29;11.95;;;4.50;;
68273;SDS011;55104;47.356;19.448;2023-07-13T00:05:31;11.73;;;4.25;;
68273;SDS011;55104;47.356;19.448;2023-07-13T00:08:33;10.23;;;4.40;;
68273;SDS011;55104;47.356;19.448;2023-07-13T00:11:36;8.93;;;4.10;;
68273;SDS011;55104;47.356;19.448;2023-07-13T00:14:38;10.65;;;4.63;;
68273;SDS011;55104;47.356;19.448;2023-07-13T00:17:40;10.90;;;4.47;;
68273;SDS011;55104;47.356;19.448;2023-07-13T00:20:42;10.82;;;5.00;;
68273;SDS011;55104;47.356;19.448;2023-07-13T00:23:44;14.70;;;4.93;;
68273;SDS011;55104;47.356;19.448;2023-07-13T00:26:46;11.07;;;5.57;;
68273;SDS011;55104;47.356;19.448;2023-07-13T00:29:48;9.88;;;4.45;;
68273;SDS011;55104;47.356;19.448;2023-07-13T00:32:50;8.00;;;3.92;;
68273;SDS011;55104;47.356;19.448;2023-07-13T00:36:09;11.68;;;4.43;;
68273;SDS011;55104;47.356;19.448;2023-07-13T00:39:13;7.83;;;3.57;;
68273;SDS011;55104;47.356;19.448;2023-07-13T00:42:15;7.50;;;3.47;;
68273;SDS011;55104;47.356;19.448;2023-07-13T00:48:30;7.22;;;3.28;;
68273;SDS011;55104;47.356;19.448;2023-07-13T00:51:45;9.68;;;3.47;;
68273;SDS011;55104;47.356;19.448;2023-07-13T00:54:51;12.80;;;4.00;;
68273;SDS011;55104;47.356;19.448;2023-07-13T00:57:54;8.47;;;3.30;;
68273;SDS011;55104;47.356;19.448;2023-07-13T01:00:57;7.53;;;2.70;;
68273;SDS011;55104;47.356;19.448;2023-07-13T01:03:59;11.30;;;3.05;;
68273;SDS011;55104;47.356;19.448;2023-07-13T01:07:01;8.00;;;2.58;;
68273;SDS011;55104;47.356;19.448;2023-07-13T01:10:04;6.17;;;2.73;;
68273;SDS011;55104;47.356;19.448;2023-07-13T01:13:07;6.50;;;2.60;;
68273;SDS011;55104;47.356;19.448;2023-07-13T01:19:43;7.03;;;2.72;;
68273;SDS011;55104;47.356;19.448;2023-07-13T01:22:46;10.10;;;3.08;;
68273;SDS011;55104;47.356;19.448;2023-07-13T01:25:48;8.83;;;3.03;;
68273;SDS011;55104;47.356;19.448;2023-07-13T01:28:50;7.87;;;3.13;;
68273;SDS011;55104;47.356;19.448;2023-07-13T01:31:52;7.30;;;2.97;;
68273;SDS011;55104;47.356;19.448;2023-07-13T01:34:55;11.27;;;3.10;;
68273;SDS011;55104;47.356;19.448;2023-07-13T01:37:57;9.80;;;3.10;;
68273;SDS011;55104;47.356;19.448;2023-07-13T01:40:59;8.57;;;3.53;;
68273;SDS011;55104;47.356;19.448;2023-07-13T01:44:01;8.13;;;3.53;;
68273;SDS011;55104;47.356;19.448;2023-07-13T01:47:03;9.73;;;3.15;;
68273;SDS011;55104;47.356;19.448;2023-07-13T01:50:05;8.95;;;2.95;;
68273;SDS011;55104;47.356;19.448;2023-07-13T01:53:08;8.35;;;3.42;;
68273;SDS011;55104;47.356;19.448;2023-07-13T01:56:10;9.67;;;3.07;;
68273;SDS011;55104;47.356;19.448;2023-07-13T01:59:12;10.23;;;3.13;;
68273;SDS011;55104;47.356;19.448;2023-07-13T02:02:14;10.73;;;2.90;;
68273;SDS011;55104;47.356;19.448;2023-07-13T02:05:17;7.28;;;3.20;;
68273;SDS011;55104;47.356;19.448;2023-07-13T02:08:19;7.38;;;2.63;;
68273;SDS011;55104;47.356;19.448;2023-07-13T02:11:21;7.33;;;2.80;;
68273;SDS011;55104;47.356;19.448;2023-07-13T02:14:23;8.47;;;2.90;;
68273;SDS011;55104;47.356;19.448;2023-07-13T02:17:26;6.65;;;2.75;;
68273;SDS011;55104;47.356;19.448;2023-07-13T02:20:28;6.82;;;2.58;;
68273;SDS011;55104;47.356;19.448;2023-07-13T02:23:30;8.02;;;2.75;;
68273;SDS011;55104;47.356;19.448;2023-07-13T02:26:32;6.37;;;2.67;;
68273;SDS011;55104;47.356;19.448;2023-07-13T02:29:34;9.50;;;2.87;;
68273;SDS011;55104;47.356;19.448;2023-07-13T02:32:36;7.28;;;2.80;;
68273;SDS011;55104;47.356;19.448;2023-07-13T02:35:38;6.53;;;2.83;;
68273;SDS011;55104;47.356;19.448;2023-07-13T02:38:40;7.20;;;2.75;;
68273;SDS011;55104;47.356;19.448;2023-07-13T02:41:42;6.93;;;2.43;;
68273;SDS011;55104;47.356;19.448;2023-07-13T02:44:46;9.43;;;3.20;;
68273;SDS011;55104;47.356;19.448;2023-07-13T02:47:48;9.07;;;2.90;;
68273;SDS011;55104;47.356;19.448;2023-07-13T02:50:50;7.43;;;2.85;;
68273;SDS011;55104;47.356;19.448;2023-07-13T02:53:52;8.73;;;2.90;;
68273;SDS011;55104;47.356;19.448;2023-07-13T02:56:55;8.87;;;2.90;;
68273;SDS011;55104;47.356;19.448;2023-07-13T02:59:57;6.30;;;2.60;;
68273;SDS011;55104;47.356;19.448;2023-07-13T03:02:59;7.15;;;2.63;;
68273;SDS011;55104;47.356;19.448;2023-07-13T03:06:02;7.18;;;3.05;;
68273;SDS011;55104;47.356;19.448;2023-07-13T03:09:13;8.70;;;2.85;;
68273;SDS011;55104;47.356;19.448;2023-07-13T03:12:19;7.20;;;3.00;;
68273;SDS011;55104;47.356;19.448;2023-07-13T03:15:22;7.47;;;3.10;;
68273;SDS011;55104;47.356;19.448;2023-07-13T03:18:27;9.55;;;3.30;;
68273;SDS011;55104;47.356;19.448;2023-07-13T03:21:33;10.73;;;3.10;;
68273;SDS011;55104;47.356;19.448;2023-07-13T03:24:36;8.35;;;3.25;;
68273;SDS011;55104;47.356;19.448;2023-07-13T03:27:41;7.53;;;2.90;;
68273;SDS011;55104;47.356;19.448;2023-07-13T03:30:43;7.00;;;2.80;;
68273;SDS011;55104;47.356;19.448;2023-07-13T03:33:46;8.00;;;3.30;;
68273;SDS011;55104;47.356;19.448;2023-07-13T03:36:50;7.95;;;3.30;;
68273;SDS011;55104;47.356;19.448;2023-07-13T03:39:53;8.88;;;3.10;;
68273;SDS011;55104;47.356;19.448;2023-07-13T03:42:56;9.07;;;3.63;;
68273;SDS011;55104;47.356;19.448;2023-07-13T03:45:58;7.63;;;3.00;;
68273;SDS011;55104;47.356;19.448;2023-07-13T03:49:00;11.18;;;3.45;;
68273;SDS011;55104;47.356;19.448;2023-07-13T03:52:03;7.18;;;3.35;;
68273;SDS011;55104;47.356;19.448;2023-07-13T03:55:05;7.78;;;3.30;;
68273;SDS011;55104;47.356;19.448;2023-07-13T03:58:26;8.80;;;3.80;;
68273;SDS011;55104;47.356;19.448;2023-07-13T04:01:32;8.20;;;3.17;;
68273;SDS011;55104;47.356;19.448;2023-07-13T04:04:35;8.18;;;3.28;;
68273;SDS011;55104;47.356;19.448;2023-07-13T04:07:37;7.68;;;3.13;;
68273;SDS011;55104;47.356;19.448;2023-07-13T04:10:40;7.45;;;3.40;;
68273;SDS011;55104;47.356;19.448;2023-07-13T04:13:42;8.80;;;3.73;;
68273;SDS011;55104;47.356;19.448;2023-07-13T04:16:45;7.73;;;2.97;;
68273;SDS011;55104;47.356;19.448;2023-07-13T04:19:48;7.97;;;3.17;;
68273;SDS011;55104;47.356;19.448;2023-07-13T04:22:50;9.35;;;3.78;;
68273;SDS011;55104;47.356;19.448;2023-07-13T04:25:53;11.43;;;3.90;;
68273;SDS011;55104;47.356;19.448;2023-07-13T04:28:55;9.97;;;3.83;;
68273;SDS011;55104;47.356;19.448;2023-07-13T04:31:58;8.60;;;3.83;;
68273;SDS011;55104;47.356;19.448;2023-07-13T04:35:00;9.95;;;3.78;;
68273;SDS011;55104;47.356;19.448;2023-07-13T04:38:03;8.00;;;3.30;;
68273;SDS011;55104;47.356;19.448;2023-07-13T04:41:06;8.15;;;3.10;;
68273;SDS011;55104;47.356;19.448;2023-07-13T04:44:08;8.50;;;3.47;;
68273;SDS011;55104;47.356;19.448;2023-07-13T04:47:10;9.50;;;3.30;;
68273;SDS011;55104;47.356;19.448;2023-07-13T04:50:13;9.43;;;3.50;;
68273;SDS011;55104;47.356;19.448;2023-07-13T04:53:22;10.73;;;3.20;;
68273;SDS011;55104;47.356;19.448;2023-07-13T04:56:25;8.82;;;3.30;;
68273;SDS011;55104;47.356;19.448;2023-07-13T04:59:27;6.60;;;2.80;;
68273;SDS011;55104;47.356;19.448;2023-07-13T05:02:29;7.83;;;3.20;;
68273;SDS011;55104;47.356;19.448;2023-07-13T05:05:32;7.65;;;3.15;;
68273;SDS011;55104;47.356;19.448;2023-07-13T05:08:35;8.60;;;3.80;;
68273;SDS011;55104;47.356;19.448;2023-07-13T05:11:37;9.73;;;3.47;;
68273;SDS011;55104;47.356;19.448;2023-07-13T05:14:39;8.97;;;3.77;;
68273;SDS011;55104;47.356;19.448;2023-07-13T05:17:41;10.17;;;3.80;;
68273;SDS011;55104;47.356;19.448;2023-07-13T05:20:43;10.38;;;4.10;;
68273;SDS011;55104;47.356;19.448;2023-07-13T05:23:47;7.90;;;3.63;;
68273;SDS011;55104;47.356;19.448;2023-07-13T05:26:49;9.95;;;4.00;;
68273;SDS011;55104;47.356;19.448;2023-07-13T05:29:51;10.77;;;3.87;;
68273;SDS011;55104;47.356;19.448;2023-07-13T05:32:53;8.77;;;3.77;;
68273;SDS011;55104;47.356;19.448;2023-07-13T05:35:56;10.25;;;4.20;;
68273;SDS011;55104;47.356;19.448;2023-07-13T05:38:58;8.98;;;4.00;;
68273;SDS011;55104;47.356;19.448;2023-07-13T05:42:00;8.15;;;3.65;;
68273;SDS011;55104;47.356;19.448;2023-07-13T05:45:03;8.83;;;3.00;;
68273;SDS011;55104;47.356;19.448;2023-07-13T05:48:06;6.17;;;1.97;;
68273;SDS011;55104;47.356;19.448;2023-07-13T05:51:08;6.05;;;2.00;;
68273;SDS011;55104;47.356;19.448;2023-07-13T05:54:11;5.68;;;1.65;;
68273;SDS011;55104;47.356;19.448;2023-07-13T05:57:13;7.55;;;1.92;;
68273;SDS011;55104;47.356;19.448;2023-07-13T06:00:15;11.37;;;1.93;;
68273;SDS011;55104;47.356;19.448;2023-07-13T06:03:17;6.43;;;2.03;;
68273;SDS011;55104;47.356;19.448;2023-07-13T06:06:19;7.25;;;2.00;;
68273;SDS011;55104;47.356;19.448;2023-07-13T06:09:21;5.95;;;2.13;;
68273;SDS011;55104;47.356;19.448;2023-07-13T06:12:24;6.80;;;2.25;;
68273;SDS011;55104;47.356;19.448;2023-07-13T06:15:26;7.07;;;2.00;;
68273;SDS011;55104;47.356;19.448;2023-07-13T06:18:28;4.80;;;1.70;;
68273;SDS011;55104;47.356;19.448;2023-07-13T06:21:30;7.60;;;2.33;;
68273;SDS011;55104;47.356;19.448;2023-07-13T06:24:32;7.28;;;2.08;;
68273;SDS011;55104;47.356;19.448;2023-07-13T06:27:34;5.90;;;1.70;;
68273;SDS011;55104;47.356;19.448;2023-07-13T06:30:38;5.77;;;1.70;;
68273;SDS011;55104;47.356;19.448;2023-07-13T06:33:41;4.47;;;1.17;;
68273;SDS011;55104;47.356;19.448;2023-07-13T06:36:44;5.45;;;1.48;;
68273;SDS011;55104;47.356;19.448;2023-07-13T06:39:46;4.15;;;1.10;;
68273;SDS011;55104;47.356;19.448;2023-07-13T06:42:48;3.95;;;1.10;;
68273;SDS011;55104;47.356;19.448;2023-07-13T06:45:54;4.33;;;1.03;;
68273;SDS011;55104;47.356;19.448;2023-07-13T06:48:57;3.57;;;1.10;;
68273;SDS011;55104;47.356;19.448;2023-07-13T06:51:59;5.18;;;1.20;;
68273;SDS011;55104;47.356;19.448;2023-07-13T06:55:01;3.92;;;0.93;;
68273;SDS011;55104;47.356;19.448;2023-07-13T06:58:04;5.88;;;1.60;;
68273;SDS011;55104;47.356;19.448;2023-07-13T07:01:07;4.17;;;0.90;;
68273;SDS011;55104;47.356;19.448;2023-07-13T07:04:13;4.60;;;1.30;;
68273;SDS011;55104;47.356;19.448;2023-07-13T07:07:15;4.22;;;1.02;;
68273;SDS011;55104;47.356;19.448;2023-07-13T07:10:18;5.75;;;1.63;;
68273;SDS011;55104;47.356;19.448;2023-07-13T07:13:20;5.07;;;1.20;;
68273;SDS011;55104;47.356;19.448;2023-07-13T07:16:24;5.33;;;1.40;;
68273;SDS011;55104;47.356;19.448;2023-07-13T07:19:29;5.60;;;1.30;;
68273;SDS011;55104;47.356;19.448;2023-07-13T07:22:32;4.43;;;1.40;;
68273;SDS011;55104;47.356;19.448;2023-07-13T07:25:34;4.68;;;1.42;;
68273;SDS011;55104;47.356;19.448;2023-07-13T07:28:38;4.13;;;1.27;;
68273;SDS011;55104;47.356;19.448;2023-07-13T07:31:44;6.00;;;1.20;;
68273;SDS011;55104;47.356;19.448;2023-07-13T07:34:49;4.50;;;1.00;;
68273;SDS011;55104;47.356;19.448;2023-07-13T07:37:51;6.00;;;1.38;;
68273;SDS011;55104;47.356;19.448;2023-07-13T07:40:53;5.00;;;1.35;;
68273;SDS011;55104;47.356;19.448;2023-07-13T07:43:58;5.28;;;1.38;;
68273;SDS011;55104;47.356;19.448;2023-07-13T07:47:00;4.70;;;1.23;;
68273;SDS011;55104;47.356;19.448;2023-07-13T07:50:03;3.47;;;1.10;;
68273;SDS011;55104;47.356;19.448;2023-07-13T07:53:06;3.40;;;0.93;;
68273;SDS011;55104;47.356;19.448;2023-07-13T07:56:12;4.53;;;1.20;;
68273;SDS011;55104;47.356;19.448;2023-07-13T07:59:17;4.50;;;1.27;;
68273;SDS011;55104;47.356;19.448;2023-07-13T08:02:22;4.13;;;1.33;;
68273;SDS011;55104;47.356;19.448;2023-07-13T08:05:26;4.73;;;1.57;;
68273;SDS011;55104;47.356;19.448;2023-07-13T08:08:43;5.03;;;1.48;;
68273;SDS011;55104;47.356;19.448;2023-07-13T08:11:45;4.35;;;1.30;;
68273;SDS011;55104;47.356;19.448;2023-07-13T08:14:50;5.97;;;1.67;;
68273;SDS011;55104;47.356;19.448;2023-07-13T08:17:55;4.77;;;1.47;;
68273;SDS011;55104;47.356;19.448;2023-07-13T08:20:58;4.93;;;1.53;;
68273;SDS011;55104;47.356;19.448;2023-07-13T08:24:06;5.63;;;1.35;;
68273;SDS011;55104;47.356;19.448;2023-07-13T08:27:08;5.43;;;1.52;;
68273;SDS011;55104;47.356;19.448;2023-07-13T08:30:13;4.90;;;1.58;;
68273;SDS011;55104;47.356;19.448;2023-07-13T08:33:15;4.67;;;1.20;;
68273;SDS011;55104;47.356;19.448;2023-07-13T08:36:18;4.23;;;1.40;;
68273;SDS011;55104;47.356;19.448;2023-07-13T08:39:20;5.90;;;1.58;;
68273;SDS011;55104;47.356;19.448;2023-07-13T08:42:27;4.57;;;1.30;;
68273;SDS011;55104;47.356;19.448;2023-07-13T08:48:50;4.77;;;1.60;;
68273;SDS011;55104;47.356;19.448;2023-07-13T08:51:55;4.73;;;1.63;;
68273;SDS011;55104;47.356;19.448;2023-07-13T08:58:28;5.47;;;1.58;;
68273;SDS011;55104;47.356;19.448;2023-07-13T09:14:43;6.72;;;1.60;;
68273;SDS011;55104;47.356;19.448;2023-07-13T09:17:48;5.03;;;1.70;;
68273;SDS011;55104;47.356;19.448;2023-07-13T09:21:36;6.93;;;2.10;;
68273;SDS011;55104;47.356;19.448;2023-07-13T09:24:41;5.87;;;1.70;;
68273;SDS011;55104;47.356;19.448;2023-07-13T09:27:48;7.97;;;2.00;;
68273;SDS011;55104;47.356;19.448;2023-07-13T09:34:11;6.13;;;1.85;;
68273;SDS011;55104;47.356;19.448;2023-07-13T09:37:14;6.17;;;2.13;;
68273;SDS011;55104;47.356;19.448;2023-07-13T09:40:20;6.47;;;1.70;;
68273;SDS011;55104;47.356;19.448;2023-07-13T09:43:27;6.00;;;1.95;;
68273;SDS011;55104;47.356;19.448;2023-07-13T09:46:30;6.30;;;1.88;;
68273;SDS011;55104;47.356;19.448;2023-07-13T09:49:35;6.63;;;1.98;;
68273;SDS011;55104;47.356;19.448;2023-07-13T09:52:42;5.57;;;1.70;;
68273;SDS011;55104;47.356;19.448;2023-07-13T09:55:47;5.10;;;1.90;;
68273;SDS011;55104;47.356;19.448;2023-07-13T09:58:54;6.00;;;1.95;;
68273;SDS011;55104;47.356;19.448;2023-07-13T10:01:56;7.22;;;2.03;;
68273;SDS011;55104;47.356;19.448;2023-07-13T10:08:26;4.90;;;1.83;;
68273;SDS011;55104;47.356;19.448;2023-07-13T10:11:29;5.20;;;1.70;;
68273;SDS011;55104;47.356;19.448;2023-07-13T10:14:32;5.15;;;1.90;;
68273;SDS011;55104;47.356;19.448;2023-07-13T10:17:34;4.63;;;1.73;;
68273;SDS011;55104;47.356;19.448;2023-07-13T10:20:37;5.90;;;2.00;;
68273;SDS011;55104;47.356;19.448;2023-07-13T10:23:39;5.23;;;1.80;;
68273;SDS011;55104;47.356;19.448;2023-07-13T10:26:46;6.00;;;2.07;;
68273;SDS011;55104;47.356;19.448;2023-07-13T10:29:55;4.65;;;1.60;;
68273;SDS011;55104;47.356;19.448;2023-07-13T10:33:03;5.15;;;1.52;;
68273;SDS011;55104;47.356;19.448;2023-07-13T10:39:20;5.20;;;1.80;;
68273;SDS011;55104;47.356;19.448;2023-07-13T10:42:29;5.83;;;1.80;;
68273;SDS011;55104;47.356;19.448;2023-07-13T10:45:34;5.43;;;1.80;;
68273;SDS011;55104;47.356;19.448;2023-07-13T10:48:39;4.35;;;1.70;;
68273;SDS011;55104;47.356;19.448;2023-07-13T10:51:43;5.90;;;2.30;;
68273;SDS011;55104;47.356;19.448;2023-07-13T10:54:46;4.73;;;1.83;;
68273;SDS011;55104;47.356;19.448;2023-07-13T10:57:49;4.97;;;1.80;;
68273;SDS011;55104;47.356;19.448;2023-07-13T11:04:08;4.43;;;1.77;;
68273;SDS011;55104;47.356;19.448;2023-07-13T11:07:23;5.03;;;2.10;;
68273;SDS011;55104;47.356;19.448;2023-07-13T11:16:54;5.13;;;1.90;;
68273;SDS011;55104;47.356;19.448;2023-07-13T11:20:40;4.68;;;1.70;;
68273;SDS011;55104;47.356;19.448;2023-07-13T11:23:33;4.72;;;1.70;;
68273;SDS011;55104;47.356;19.448;2023-07-13T11:29:49;5.40;;;2.03;;
68273;SDS011;55104;47.356;19.448;2023-07-13T11:32:52;4.90;;;1.80;;
68273;SDS011;55104;47.356;19.448;2023-07-13T11:36:15;5.45;;;1.92;;
68273;SDS011;55104;47.356;19.448;2023-07-13T11:39:22;5.82;;;1.90;;
68273;SDS011;55104;47.356;19.448;2023-07-13T11:42:32;7.27;;;2.00;;
68273;SDS011;55104;47.356;19.448;2023-07-13T11:45:34;3.67;;;1.63;;
68273;SDS011;55104;47.356;19.448;2023-07-13T11:48:49;4.95;;;1.60;;
68273;SDS011;55104;47.356;19.448;2023-07-13T11:51:52;5.15;;;1.50;;
68273;SDS011;55104;47.356;19.448;2023-07-13T11:54:59;4.22;;;1.50;;
68273;SDS011;55104;47.356;19.448;2023-07-13T11:58:04;4.77;;;1.77;;
68273;SDS011;55104;47.356;19.448;2023-07-13T12:01:11;4.77;;;1.60;;
68273;SDS011;55104;47.356;19.448;2023-07-13T12:07:28;6.95;;;1.80;;
68273;SDS011;55104;47.356;19.448;2023-07-13T12:10:31;4.00;;;1.50;;
68273;SDS011;55104;47.356;19.448;2023-07-13T12:13:36;5.53;;;1.87;;
68273;SDS011;55104;47.356;19.448;2023-07-13T12:16:40;3.77;;;1.20;;
68273;SDS011;55104;47.356;19.448;2023-07-13T12:19:43;3.95;;;1.50;;
68273;SDS011;55104;47.356;19.448;2023-07-13T12:22:48;4.55;;;1.38;;
68273;SDS011;55104;47.356;19.448;2023-07-13T12:25:52;4.38;;;1.30;;
68273;SDS011;55104;47.356;19.448;2023-07-13T12:28:55;4.93;;;1.27;;
68273;SDS011;55104;47.356;19.448;2023-07-13T12:31:58;3.83;;;1.20;;
68273;SDS011;55104;47.356;19.448;2023-07-13T12:35:07;4.53;;;1.75;;
68273;SDS011;55104;47.356;19.448;2023-07-13T12:38:16;4.22;;;1.30;;
68273;SDS011;55104;47.356;19.448;2023-07-13T12:41:19;5.10;;;1.63;;
68273;SDS011;55104;47.356;19.448;2023-07-13T12:44:29;4.47;;;1.20;;
68273;SDS011;55104;47.356;19.448;2023-07-13T12:47:39;3.37;;;1.10;;
68273;SDS011;55104;47.356;19.448;2023-07-13T12:50:46;4.55;;;1.20;;
68273;SDS011;55104;47.356;19.448;2023-07-13T12:53:56;5.25;;;1.05;;
68273;SDS011;55104;47.356;19.448;2023-07-13T12:57:12;3.22;;;1.05;;
68273;SDS011;55104;47.356;19.448;2023-07-13T13:00:22;4.83;;;1.30;;
68273;SDS011;55104;47.356;19.448;2023-07-13T13:03:35;3.93;;;1.10;;
68273;SDS011;55104;47.356;19.448;2023-07-13T13:06:39;3.22;;;1.00;;
68273;SDS011;55104;47.356;19.448;2023-07-13T13:09:44;4.18;;;0.95;;
68273;SDS011;55104;47.356;19.448;2023-07-13T13:12:46;3.85;;;1.15;;
68273;SDS011;55104;47.356;19.448;2023-07-13T13:15:48;3.90;;;1.10;;
68273;SDS011;55104;47.356;19.448;2023-07-13T13:18:51;3.40;;;0.90;;
68273;SDS011;55104;47.356;19.448;2023-07-13T13:21:55;4.38;;;1.20;;
68273;SDS011;55104;47.356;19.448;2023-07-13T13:24:59;3.97;;;1.40;;
68273;SDS011;55104;47.356;19.448;2023-07-13T13:28:01;3.40;;;1.02;;
68273;SDS011;55104;47.356;19.448;2023-07-13T13:31:04;4.77;;;1.43;;
68273;SDS011;55104;47.356;19.448;2023-07-13T13:34:16;4.43;;;1.40;;
68273;SDS011;55104;47.356;19.448;2023-07-13T13:37:22;3.47;;;1.25;;
68273;SDS011;55104;47.356;19.448;2023-07-13T13:40:27;4.65;;;1.10;;
68273;SDS011;55104;47.356;19.448;2023-07-13T13:43:29;4.57;;;1.40;;
68273;SDS011;55104;47.356;19.448;2023-07-13T13:46:31;3.17;;;1.00;;
68273;SDS011;55104;47.356;19.448;2023-07-13T13:49:33;3.70;;;1.23;;
68273;SDS011;55104;47.356;19.448;2023-07-13T13:52:37;3.78;;;1.38;;
68273;SDS011;55104;47.356;19.448;2023-07-13T13:55:40;5.00;;;1.30;;
68273;SDS011;55104;47.356;19.448;2023-07-13T13:58:43;4.22;;;1.25;;
68273;SDS011;55104;47.356;19.448;2023-07-13T14:01:46;3.67;;;1.17;;
68273;SDS011;55104;47.356;19.448;2023-07-13T14:05:01;4.23;;;1.43;;
68273;SDS011;55104;47.356;19.448;2023-07-13T14:08:04;4.50;;;1.40;;
68273;SDS011;55104;47.356;19.448;2023-07-13T14:11:13;4.63;;;1.40;;
68273;SDS011;55104;47.356;19.448;2023-07-13T14:14:19;5.00;;;1.50;;
68273;SDS011;55104;47.356;19.448;2023-07-13T14:17:24;7.43;;;1.40;;
68273;SDS011;55104;47.356;19.448;2023-07-13T14:20:28;5.40;;;1.33;;
68273;SDS011;55104;47.356;19.448;2023-07-13T14:23:31;4.63;;;1.42;;
68273;SDS011;55104;47.356;19.448;2023-07-13T14:26:36;4.75;;;1.48;;
68273;SDS011;55104;47.356;19.448;2023-07-13T14:29:40;5.07;;;1.70;;
68273;SDS011;55104;47.356;19.448;2023-07-13T14:32:43;3.80;;;1.13;;
68273;SDS011;55104;47.356;19.448;2023-07-13T14:35:46;5.17;;;1.80;;
68273;SDS011;55104;47.356;19.448;2023-07-13T14:38:51;5.07;;;1.63;;
68273;SDS011;55104;47.356;19.448;2023-07-13T14:41:54;4.45;;;1.40;;
68273;SDS011;55104;47.356;19.448;2023-07-13T14:44:58;5.70;;;1.75;;
68273;SDS011;55104;47.356;19.448;2023-07-13T14:48:00;5.00;;;1.40;;
68273;SDS011;55104;47.356;19.448;2023-07-13T14:51:03;4.43;;;1.53;;
68273;SDS011;55104;47.356;19.448;2023-07-13T14:54:05;4.15;;;1.35;;
68273;SDS011;55104;47.356;19.448;2023-07-13T14:57:14;5.18;;;1.73;;
68273;SDS011;55104;47.356;19.448;2023-07-13T15:00:19;6.25;;;1.58;;
68273;SDS011;55104;47.356;19.448;2023-07-13T15:03:23;4.10;;;1.37;;
68273;SDS011;55104;47.356;19.448;2023-07-13T15:06:27;4.50;;;1.30;;
68273;SDS011;55104;47.356;19.448;2023-07-13T15:09:30;4.03;;;1.42;;
68273;SDS011;55104;47.356;19.448;2023-07-13T15:12:32;5.00;;;1.60;;
68273;SDS011;55104;47.356;19.448;2023-07-13T15:15:34;5.43;;;1.60;;
68273;SDS011;55104;47.356;19.448;2023-07-13T15:18:39;8.33;;;1.97;;
68273;SDS011;55104;47.356;19.448;2023-07-13T15:21:42;5.83;;;1.67;;
68273;SDS011;55104;47.356;19.448;2023-07-13T15:24:44;4.80;;;1.40;;
68273;SDS011;55104;47.356;19.448;2023-07-13T15:27:46;5.00;;;1.38;;
68273;SDS011;55104;47.356;19.448;2023-07-13T15:30:49;5.70;;;1.77;;
68273;SDS011;55104;47.356;19.448;2023-07-13T15:33:52;4.73;;;1.83;;
68273;SDS011;55104;47.356;19.448;2023-07-13T15:36:56;6.60;;;1.63;;
68273;SDS011;55104;47.356;19.448;2023-07-13T15:39:58;4.53;;;1.67;;
68273;SDS011;55104;47.356;19.448;2023-07-13T15:43:00;6.28;;;1.88;;
68273;SDS011;55104;47.356;19.448;2023-07-13T15:46:02;4.50;;;1.60;;
68273;SDS011;55104;47.356;19.448;2023-07-13T15:49:04;5.33;;;1.73;;
68273;SDS011;55104;47.356;19.448;2023-07-13T15:52:17;4.63;;;1.70;;
68273;SDS011;55104;47.356;19.448;2023-07-13T15:55:21;4.35;;;1.30;;
68273;SDS011;55104;47.356;19.448;2023-07-13T15:58:23;5.30;;;1.50;;
68273;SDS011;55104;47.356;19.448;2023-07-13T16:01:32;5.28;;;1.50;;
68273;SDS011;55104;47.356;19.448;2023-07-13T16:04:35;4.97;;;1.80;;
68273;SDS011;55104;47.356;19.448;2023-07-13T16:07:37;4.50;;;1.40;;
68273;SDS011;55104;47.356;19.448;2023-07-13T16:10:39;5.65;;;1.90;;
68273;SDS011;55104;47.356;19.448;2023-07-13T16:13:43;5.82;;;2.10;;
68273;SDS011;55104;47.356;19.448;2023-07-13T16:16:46;6.32;;;1.90;;
68273;SDS011;55104;47.356;19.448;2023-07-13T16:19:52;4.90;;;1.77;;
68273;SDS011;55104;47.356;19.448;2023-07-13T16:22:57;5.07;;;1.83;;
68273;SDS011;55104;47.356;19.448;2023-07-13T16:26:00;5.35;;;1.80;;
68273;SDS011;55104;47.356;19.448;2023-07-13T16:29:02;7.03;;;1.60;;
68273;SDS011;55104;47.356;19.448;2023-07-13T16:32:11;4.78;;;1.40;;
68273;SDS011;55104;47.356;19.448;2023-07-13T16:35:21;6.40;;;1.60;;
68273;SDS011;55104;47.356;19.448;2023-07-13T16:38:25;5.17;;;1.60;;
68273;SDS011;55104;47.356;19.448;2023-07-13T16:41:30;6.82;;;2.25;;
68273;SDS011;55104;47.356;19.448;2023-07-13T16:44:32;6.32;;;1.77;;
68273;SDS011;55104;47.356;19.448;2023-07-13T16:47:34;6.07;;;1.67;;
68273;SDS011;55104;47.356;19.448;2023-07-13T16:50:37;5.63;;;1.83;;
68273;SDS011;55104;47.356;19.448;2023-07-13T16:53:42;6.83;;;1.77;;
68273;SDS011;55104;47.356;19.448;2023-07-13T16:56:46;4.55;;;1.65;;
68273;SDS011;55104;47.356;19.448;2023-07-13T16:59:52;5.43;;;1.90;;
68273;SDS011;55104;47.356;19.448;2023-07-13T17:06:18;5.37;;;1.97;;
68273;SDS011;55104;47.356;19.448;2023-07-13T17:09:25;8.80;;;2.83;;
68273;SDS011;55104;47.356;19.448;2023-07-13T17:12:28;5.50;;;2.10;;
68273;SDS011;55104;47.356;19.448;2023-07-13T17:15:31;5.68;;;1.83;;
68273;SDS011;55104;47.356;19.448;2023-07-13T17:18:36;5.57;;;1.80;;
68273;SDS011;55104;47.356;19.448;2023-07-13T17:21:39;6.97;;;1.50;;
68273;SDS011;55104;47.356;19.448;2023-07-13T17:24:41;6.43;;;2.10;;
68273;SDS011;55104;47.356;19.448;2023-07-13T17:27:45;5.18;;;1.88;;
68273;SDS011;55104;47.356;19.448;2023-07-13T17:30:49;5.60;;;1.75;;
68273;SDS011;55104;47.356;19.448;2023-07-13T17:33:53;7.10;;;2.13;;
68273;SDS011;55104;47.356;19.448;2023-07-13T17:36:57;4.70;;;1.70;;
68273;SDS011;55104;47.356;19.448;2023-07-13T17:40:00;6.43;;;1.90;;
68273;SDS011;55104;47.356;19.448;2023-07-13T17:43:08;5.28;;;2.00;;
68273;SDS011;55104;47.356;19.448;2023-07-13T17:46:29;4.75;;;1.73;;
68273;SDS011;55104;47.356;19.448;2023-07-13T17:49:33;5.88;;;1.70;;
68273;SDS011;55104;47.356;19.448;2023-07-13T17:52:35;5.93;;;1.87;;
68273;SDS011;55104;47.356;19.448;2023-07-13T17:55:37;5.50;;;1.83;;
68273;SDS011;55104;47.356;19.448;2023-07-13T17:58:39;5.85;;;2.00;;
68273;SDS011;55104;47.356;19.448;2023-07-13T18:01:44;6.00;;;1.63;;
68273;SDS011;55104;47.356;19.448;2023-07-13T18:04:47;5.45;;;1.73;;
68273;SDS011;55104;47.356;19.448;2023-07-13T18:07:51;6.07;;;2.00;;
68273;SDS011;55104;47.356;19.448;2023-07-13T18:10:55;5.77;;;1.80;;
68273;SDS011;55104;47.356;19.448;2023-07-13T18:13:59;5.75;;;2.20;;
68273;SDS011;55104;47.356;19.448;2023-07-13T18:17:01;5.65;;;2.10;;
68273;SDS011;55104;47.356;19.448;2023-07-13T18:20:04;7.22;;;2.38;;
68273;SDS011;55104;47.356;19.448;2023-07-13T18:23:20;7.07;;;2.33;;
68273;SDS011;55104;47.356;19.448;2023-07-13T18:26:24;5.70;;;2.30;;
68273;SDS011;55104;47.356;19.448;2023-07-13T18:29:27;7.13;;;2.35;;
68273;SDS011;55104;47.356;19.448;2023-07-13T18:32:29;8.30;;;2.50;;
68273;SDS011;55104;47.356;19.448;2023-07-13T18:35:33;7.65;;;2.10;;
68273;SDS011;55104;47.356;19.448;2023-07-13T18:38:36;6.57;;;2.33;;
68273;SDS011;55104;47.356;19.448;2023-07-13T18:41:38;6.47;;;2.10;;
68273;SDS011;55104;47.356;19.448;2023-07-13T18:44:40;5.72;;;1.85;;
68273;SDS011;55104;47.356;19.448;2023-07-13T18:47:43;7.90;;;2.22;;
68273;SDS011;55104;47.356;19.448;2023-07-13T18:50:47;5.68;;;1.77;;
68273;SDS011;55104;47.356;19.448;2023-07-13T18:53:50;6.93;;;1.93;;
68273;SDS011;55104;47.356;19.448;2023-07-13T18:56:52;6.53;;;2.00;;
68273;SDS011;55104;47.356;19.448;2023-07-13T18:59:54;4.88;;;1.60;;
68273;SDS011;55104;47.356;19.448;2023-07-13T19:02:58;6.50;;;1.92;;
68273;SDS011;55104;47.356;19.448;2023-07-13T19:06:02;6.47;;;2.03;;
68273;SDS011;55104;47.356;19.448;2023-07-13T19:09:08;5.50;;;1.90;;